createdAt,value
2023-05-01T00:01:11.959Z,98728.47
2023-05-01T00:03:39.337Z,98726.41
2023-05-01T00:06:08.258Z,98721.53
2023-05-01T00:08:35.968Z,98714.34
2023-05-01T00:11:09.972Z,98709.16
2023-05-01T00:13:37.351Z,98711.91
2023-05-01T00:16:12.643Z,98700.44
2023-05-01T00:18:40.015Z,98700.06
2023-05-01T00:21:09.019Z,98697.97
2023-05-01T00:23:37.078Z,98692.38
2023-05-01T00:26:04.730Z,98693.44
2023-05-01T00:28:32.764Z,98691.63
2023-05-01T00:31:00.528Z,98687.44
2023-05-01T00:33:27.765Z,98678.72
2023-05-01T00:35:56.032Z,98684.97
2023-05-01T00:38:24.234Z,98679.50
2023-05-01T00:40:51.778Z,98679.50
2023-05-01T00:43:19.286Z,98682.44
2023-05-01T00:45:46.721Z,98672.69
2023-05-01T00:48:16.393Z,98678.09
2023-05-01T00:50:45.861Z,98675.47
2023-05-01T00:53:13.594Z,98673.00
2023-05-01T00:55:43.307Z,98670.31
2023-05-01T00:58:12.228Z,98666.22
2023-05-01T01:00:41.952Z,98660.66
2023-05-01T01:03:10.716Z,98665.72
2023-05-01T01:05:53.967Z,98658.59
2023-05-01T01:08:32.556Z,98660.31
2023-05-01T01:11:21.676Z,98655.78
2023-05-01T01:14:09.033Z,98652.13
2023-05-01T01:16:55.070Z,98648.09
2023-05-01T01:19:54.494Z,98653.19
2023-05-01T01:22:25.735Z,98649.50
2023-05-01T01:26:10.114Z,98643.78
2023-05-01T01:29:00.043Z,98641.16
2023-05-01T01:31:58.043Z,98639.06
2023-05-01T01:34:52.659Z,98645.59
2023-05-01T01:37:57.387Z,98636.44
2023-05-01T01:40:34.238Z,98639.09
2023-05-01T01:43:08.224Z,98637.50
2023-05-01T01:45:48.371Z,98637.13
2023-05-01T01:48:31.419Z,98647.44
2023-05-01T01:51:01.557Z,98639.25
2023-05-01T01:53:31.668Z,98636.63
2023-05-01T01:56:03.865Z,98633.84
2023-05-01T01:58:35.811Z,98625.47
2023-05-01T02:01:04.165Z,98629.00
2023-05-01T02:03:33.660Z,98627.06
2023-05-01T02:06:01.732Z,98626.09
2023-05-01T02:08:32.106Z,98619.72
2023-05-01T02:11:02.335Z,98603.53
2023-05-01T02:13:33.536Z,98610.69
2023-05-01T02:16:05.441Z,98606.50
2023-05-01T02:18:34.636Z,98604.59
2023-05-01T02:21:09.492Z,98603.00
2023-05-01T02:23:39.571Z,98593.63
2023-05-01T02:26:14.063Z,98593.78
2023-05-01T02:28:42.106Z,98595.50
2023-05-01T02:31:10.963Z,98588.97
2023-05-01T02:33:38.234Z,98584.38
2023-05-01T02:36:06.148Z,98588.72
2023-05-01T02:38:35.379Z,98582.47
2023-05-01T02:41:03.971Z,98578.28
2023-05-01T02:43:33.806Z,98584.72
2023-05-01T02:46:04.681Z,98583.56
2023-05-01T02:48:35.683Z,98578.44
2023-05-01T02:51:05.284Z,98580.47
2023-05-01T02:53:33.676Z,98574.78
2023-05-01T02:56:14.660Z,98574.97
2023-05-01T02:58:42.949Z,98580.09
2023-05-01T03:01:11.248Z,98576.81
2023-05-01T03:03:39.606Z,98569.31
2023-05-01T03:06:06.883Z,98572.41
2023-05-01T03:08:34.323Z,98577.22
2023-05-01T03:11:08.568Z,98574.50
2023-05-01T03:13:36.061Z,98581.41
2023-05-01T03:16:04.452Z,98577.56
2023-05-01T03:18:31.672Z,98576.00
2023-05-01T03:20:59.360Z,98571.81
2023-05-01T03:23:28.613Z,98572.69
2023-05-01T03:25:55.903Z,98578.88
2023-05-01T03:28:24.363Z,98570.34
2023-05-01T03:30:54.094Z,98565.41
2023-05-01T03:33:21.294Z,98564.69
2023-05-01T03:35:48.706Z,98563.72
2023-05-01T03:38:16.637Z,98562.94
2023-05-01T03:41:10.033Z,98560.06
2023-05-01T03:43:43.224Z,98562.34
2023-05-01T03:46:20.277Z,98566.06
2023-05-01T03:48:51.644Z,98552.19
2023-05-01T03:51:20.582Z,98550.03
2023-05-01T03:53:52.348Z,98548.47
2023-05-01T03:56:20.097Z,98546.38
2023-05-01T03:58:47.448Z,98547.59
2023-05-01T04:01:15.133Z,98546.19
2023-05-01T04:03:55.994Z,98551.44
2023-05-01T04:06:33.176Z,98549.50
2023-05-01T04:09:03.677Z,98552.28
2023-05-01T04:11:31.428Z,98552.91
2023-05-01T04:13:58.707Z,98550.19
2023-05-01T04:16:26.361Z,98553.69
2023-05-01T04:18:56.652Z,98556.03
2023-05-01T04:21:29.409Z,98545.31
2023-05-01T04:23:57.493Z,98550.47
2023-05-01T04:26:24.707Z,98555.75
2023-05-01T04:28:51.869Z,98547.44
2023-05-01T04:31:23.115Z,98556.50
2023-05-01T04:33:52.754Z,98552.84
2023-05-01T04:36:21.026Z,98556.94
2023-05-01T04:38:48.906Z,98551.63
2023-05-01T04:41:17.416Z,98551.16
2023-05-01T04:43:46.009Z,98551.22
2023-05-01T04:46:19.777Z,98546.97
2023-05-01T04:48:46.945Z,98547.75
2023-05-01T04:51:14.155Z,98546.97
2023-05-01T04:53:41.372Z,98552.56
2023-05-01T04:56:18.364Z,98552.28
2023-05-01T04:58:47.352Z,98555.44
2023-05-01T05:01:18.287Z,98557.53
2023-05-01T05:03:49.549Z,98562.22
2023-05-01T05:06:17.464Z,98555.72
2023-05-01T05:08:44.725Z,98562.53
2023-05-01T05:11:12.442Z,98558.84
2023-05-01T05:13:55.942Z,98558.31
2023-05-01T05:16:23.187Z,98561.78
2023-05-01T05:18:50.511Z,98554.13
2023-05-01T05:21:19.619Z,98559.88
2023-05-01T05:23:52.082Z,98560.25
2023-05-01T05:26:20.854Z,98557.38
2023-05-01T05:28:51.501Z,98559.66
2023-05-01T05:31:19.271Z,98549.84
2023-05-01T05:33:47.013Z,98560.38
2023-05-01T05:36:16.131Z,98555.78
2023-05-01T05:38:44.855Z,98556.00
2023-05-01T05:41:17.596Z,98559.03
2023-05-01T05:43:45.415Z,98556.59
2023-05-01T05:46:13.263Z,98548.75
2023-05-01T05:48:42.245Z,98557.84
2023-05-01T05:51:10.672Z,98551.59
2023-05-01T05:53:38.635Z,98559.13
2023-05-01T05:56:08.444Z,98563.56
2023-05-01T05:58:35.861Z,98568.19
2023-05-01T06:01:03.492Z,98572.28
2023-05-01T06:03:31.816Z,98571.06
2023-05-01T06:06:02.324Z,98574.00
2023-05-01T06:08:29.636Z,98569.09
2023-05-01T06:11:01.988Z,98570.72
2023-05-01T06:13:29.624Z,98563.94
2023-05-01T06:15:57.281Z,98568.66
2023-05-01T06:18:24.637Z,98569.53
2023-05-01T06:20:52.308Z,98570.88
2023-05-01T06:23:21.321Z,98564.50
2023-05-01T06:26:04.502Z,98571.22
2023-05-01T06:28:32.342Z,98572.41
2023-05-01T06:30:59.854Z,98570.34
2023-05-01T06:33:27.897Z,98569.16
2023-05-01T06:36:12.519Z,98577.16
2023-05-01T06:38:41.499Z,98568.97
2023-05-01T06:41:09.759Z,98580.28
2023-05-01T06:43:37.005Z,98574.00
2023-05-01T06:46:04.547Z,98590.66
2023-05-01T06:48:34.689Z,98582.72
2023-05-01T06:51:02.419Z,98590.06
2023-05-01T06:53:29.851Z,98593.63
2023-05-01T06:55:57.099Z,98595.28
2023-05-01T06:58:27.724Z,98591.88
2023-05-01T07:00:55.278Z,98596.41
2023-05-01T07:03:23.261Z,98599.00
2023-05-01T07:05:50.880Z,98599.06
2023-05-01T07:08:18.648Z,98604.97
2023-05-01T07:10:46.313Z,98601.59
2023-05-01T07:13:13.591Z,98609.88
2023-05-01T07:15:40.867Z,98597.88
2023-05-01T07:18:08.178Z,98605.66
2023-05-01T07:20:35.854Z,98611.78
2023-05-01T07:23:05.281Z,98608.28
2023-05-01T07:25:34.382Z,98609.91
2023-05-01T07:28:04.428Z,98604.44
2023-05-01T07:30:33.257Z,98612.94
2023-05-01T07:33:00.882Z,98608.13
2023-05-01T07:35:29.041Z,98599.91
2023-05-01T07:37:56.633Z,98602.34
2023-05-01T07:40:23.820Z,98602.41
2023-05-01T07:42:53.808Z,98593.72
2023-05-01T07:45:21.918Z,98595.91
2023-05-01T07:47:50.105Z,98599.63
2023-05-01T07:50:17.772Z,98588.63
2023-05-01T07:52:45.452Z,98595.78
2023-05-01T07:55:12.914Z,98588.66
2023-05-01T07:57:40.073Z,98585.69
2023-05-01T08:00:08.197Z,98577.00
2023-05-01T08:02:41.533Z,98575.63
2023-05-01T08:05:09.963Z,98583.28
2023-05-01T08:07:37.731Z,98577.53
2023-05-01T08:10:06.515Z,98573.94
2023-05-01T08:12:33.806Z,98583.75
2023-05-01T08:15:01.016Z,98572.50
2023-05-01T08:17:28.205Z,98577.00
2023-05-01T08:19:56.865Z,98573.91
2023-05-01T08:22:25.086Z,98573.66
2023-05-01T08:24:53.187Z,98571.03
2023-05-01T08:27:20.698Z,98571.94
2023-05-01T08:29:48.439Z,98567.38
2023-05-01T08:32:19.140Z,98559.75
2023-05-01T08:34:47.134Z,98563.91
2023-05-01T08:37:14.636Z,98562.38
2023-05-01T08:39:41.875Z,98560.28
2023-05-01T08:42:09.486Z,98561.53
2023-05-01T08:44:39.818Z,98553.94
2023-05-01T08:47:18.105Z,98556.19
2023-05-01T08:49:47.354Z,98559.66
2023-05-01T08:52:16.000Z,98560.03
2023-05-01T08:54:46.944Z,98561.66
2023-05-01T08:57:14.316Z,98552.22
2023-05-01T08:59:42.085Z,98563.88
2023-05-01T09:02:10.842Z,98564.81
2023-05-01T09:04:40.871Z,98557.34
2023-05-01T09:07:09.961Z,98555.50
2023-05-01T09:09:37.468Z,98557.53
2023-05-01T09:12:27.418Z,98558.59
2023-05-01T09:14:57.016Z,98559.41
2023-05-01T09:17:25.402Z,98558.22
2023-05-01T09:19:53.794Z,98559.97
2023-05-01T09:22:22.196Z,98553.56
2023-05-01T09:24:50.022Z,98554.91
2023-05-01T09:27:17.521Z,98560.31
2023-05-01T09:29:48.126Z,98557.59
2023-05-01T09:32:29.850Z,98554.38
2023-05-01T09:35:15.202Z,98559.47
2023-05-01T09:37:42.601Z,98555.41
2023-05-01T09:40:14.398Z,98559.06
2023-05-01T09:42:51.792Z,98555.41
2023-05-01T09:45:19.775Z,98549.13
2023-05-01T09:47:50.365Z,98550.69
2023-05-01T09:50:35.501Z,98539.69
2023-05-01T09:53:06.406Z,98537.25
2023-05-01T09:55:34.765Z,98542.91
2023-05-01T09:58:02.797Z,98548.47
2023-05-01T10:00:30.306Z,98539.72
2023-05-01T10:02:58.041Z,98544.91
2023-05-01T10:05:26.419Z,98540.53
2023-05-01T10:08:19.243Z,98531.63
2023-05-01T10:11:08.117Z,98535.34
2023-05-01T10:13:35.277Z,98527.13
2023-05-01T10:16:07.334Z,98535.03
2023-05-01T10:18:38.037Z,98530.63
2023-05-01T10:21:05.987Z,98536.66
2023-05-01T10:23:33.277Z,98533.28
2023-05-01T10:26:05.081Z,98530.00
2023-05-01T10:28:33.602Z,98532.75
2023-05-01T10:31:01.763Z,98526.44
2023-05-01T10:33:29.038Z,98529.41
2023-05-01T10:36:00.764Z,98527.50
2023-05-01T10:38:35.390Z,98534.25
2023-05-01T10:41:02.735Z,98526.09
2023-05-01T10:43:32.818Z,98525.91
2023-05-01T10:46:19.169Z,98526.59
2023-05-01T10:48:46.789Z,98532.25
2023-05-01T10:51:22.758Z,98526.00
2023-05-01T10:54:13.880Z,98525.91
2023-05-01T10:56:43.627Z,98525.25
2023-05-01T10:59:12.840Z,98520.72
2023-05-01T11:01:48.571Z,98523.50
2023-05-01T11:04:22.181Z,98521.63
2023-05-01T11:07:05.587Z,98522.72
2023-05-01T11:10:02.481Z,98513.84
2023-05-01T11:12:46.089Z,98516.31
2023-05-01T11:15:34.274Z,98513.34
2023-05-01T11:18:03.922Z,98514.81
2023-05-01T11:20:37.318Z,98507.25
2023-05-01T11:23:05.009Z,98504.34
2023-05-01T11:25:33.747Z,98509.53
2023-05-01T11:28:03.895Z,98506.00
2023-05-01T11:30:41.918Z,98512.78
2023-05-01T11:33:11.030Z,98509.50
2023-05-01T11:35:39.568Z,98504.78
2023-05-01T11:38:17.265Z,98506.84
2023-05-01T11:40:45.248Z,98501.31
2023-05-01T11:43:12.771Z,98502.81
2023-05-01T11:45:40.171Z,98500.13
2023-05-01T11:48:17.285Z,98512.81
2023-05-01T11:50:45.819Z,98499.84
2023-05-01T11:53:18.599Z,98499.56
2023-05-01T11:55:46.490Z,98492.84
2023-05-01T11:58:13.794Z,98499.03
2023-05-01T12:00:43.499Z,98498.47
2023-05-01T12:03:14.766Z,98498.38
2023-05-01T12:05:45.607Z,98496.78
2023-05-01T12:08:21.820Z,98499.09
2023-05-01T12:10:57.420Z,98498.81
2023-05-01T12:13:26.927Z,98502.75
2023-05-01T12:15:56.930Z,98496.91
2023-05-01T12:18:24.474Z,98493.41
2023-05-01T12:20:59.137Z,98494.94
2023-05-01T12:23:40.001Z,98495.19
2023-05-01T12:26:20.238Z,98488.53
2023-05-01T12:29:14.299Z,98488.94
2023-05-01T12:31:49.995Z,98500.69
2023-05-01T12:34:32.449Z,98500.00
2023-05-01T12:37:00.072Z,98493.41
2023-05-01T12:39:42.549Z,98497.09
2023-05-01T12:42:18.025Z,98501.38
2023-05-01T12:44:46.146Z,98493.88
2023-05-01T12:47:13.735Z,98486.16
2023-05-01T12:49:41.443Z,98498.59
2023-05-01T12:52:09.397Z,98503.56
2023-05-01T12:54:43.645Z,98499.66
2023-05-01T12:57:16.607Z,98497.38
2023-05-01T12:59:47.343Z,98493.94
2023-05-01T13:02:18.268Z,98500.50
2023-05-01T13:04:50.093Z,98491.75
2023-05-01T13:07:19.421Z,98489.88
2023-05-01T13:09:58.949Z,98481.16
2023-05-01T13:12:28.612Z,98488.19
2023-05-01T13:14:56.829Z,98476.19
2023-05-01T13:17:30.108Z,98478.91
2023-05-01T13:20:04.905Z,98477.47
2023-05-01T13:22:38.199Z,98481.16
2023-05-01T13:25:18.224Z,98477.53
2023-05-01T13:27:54.807Z,98481.44
2023-05-01T13:30:33.336Z,98478.13
2023-05-01T13:33:06.242Z,98477.09
2023-05-01T13:35:33.567Z,98480.13
2023-05-01T13:38:04.086Z,98480.53
2023-05-01T13:43:03.033Z,98489.41
2023-05-01T13:45:32.828Z,98483.03
2023-05-01T13:47:59.997Z,98487.16
2023-05-01T13:50:27.526Z,98487.88
2023-05-01T13:52:54.695Z,98489.78
2023-05-01T13:55:23.177Z,98505.09
2023-05-01T13:57:50.616Z,98501.97
2023-05-01T14:00:19.145Z,98524.56
2023-05-01T14:02:49.597Z,98523.59
2023-05-01T14:05:25.285Z,98521.63
2023-05-01T14:07:59.774Z,98529.19
2023-05-01T14:10:29.621Z,98538.06
2023-05-01T14:13:01.102Z,98559.53
2023-05-01T14:15:29.411Z,98558.22
2023-05-01T14:17:56.685Z,98553.09
2023-05-01T14:20:25.921Z,98549.16
2023-05-01T14:22:53.607Z,98545.44
2023-05-01T14:25:34.600Z,98537.25
2023-05-01T14:28:07.838Z,98534.78
2023-05-01T14:30:38.440Z,98522.63
2023-05-01T14:33:12.261Z,98520.53
2023-05-01T14:36:06.378Z,98517.53
2023-05-01T14:38:39.056Z,98530.00
2023-05-01T14:41:08.296Z,98543.78
2023-05-01T14:43:42.909Z,98552.78
2023-05-01T14:46:14.031Z,98547.31
2023-05-01T14:48:42.737Z,98541.31
2023-05-01T14:51:19.371Z,98539.34
2023-05-01T14:53:52.233Z,98538.78
2023-05-01T14:56:19.705Z,98538.97
2023-05-01T14:58:50.144Z,98541.03
2023-05-01T15:01:19.914Z,98537.44
2023-05-01T15:03:47.691Z,98534.56
2023-05-01T15:06:15.040Z,98537.16
2023-05-01T15:08:42.168Z,98544.66
2023-05-01T15:11:09.459Z,98547.63
2023-05-01T15:13:36.621Z,98552.59
2023-05-01T15:16:04.215Z,98554.56
2023-05-01T15:18:31.452Z,98562.19
2023-05-01T15:21:02.763Z,98555.13
2023-05-01T15:23:31.521Z,98564.47
2023-05-01T15:25:59.380Z,98567.38
2023-05-01T15:28:27.063Z,98572.47
2023-05-01T15:30:57.131Z,98569.03
2023-05-01T15:33:24.410Z,98571.84
2023-05-01T15:35:52.702Z,98574.13
2023-05-01T15:38:22.901Z,98584.84
2023-05-01T15:40:50.229Z,98583.00
2023-05-01T15:43:17.521Z,98574.19
2023-05-01T15:45:44.971Z,98563.31
2023-05-01T15:48:12.323Z,98568.13
2023-05-01T15:50:49.213Z,98566.22
2023-05-01T15:53:17.244Z,98552.28
2023-05-01T15:55:44.683Z,98554.94
2023-05-01T15:58:14.575Z,98552.09
2023-05-01T16:00:41.756Z,98544.34
2023-05-01T16:03:10.073Z,98556.22
2023-05-01T16:05:38.836Z,98552.47
2023-05-01T16:08:07.713Z,98557.59
2023-05-01T16:10:37.175Z,98550.41
2023-05-01T16:13:08.780Z,98539.63
2023-05-01T16:15:38.100Z,98541.00
2023-05-01T16:18:06.210Z,98548.31
2023-05-01T16:20:41.798Z,98552.66
2023-05-01T16:23:09.403Z,98548.66
2023-05-01T16:25:45.542Z,98560.81
2023-05-01T16:28:14.559Z,98555.16
2023-05-01T16:30:45.925Z,98559.34
2023-05-01T16:33:23.316Z,98566.50
2023-05-01T16:35:50.546Z,98567.47
2023-05-01T16:38:19.383Z,98577.91
2023-05-01T16:40:51.006Z,98581.69
2023-05-01T16:43:18.227Z,98586.59
2023-05-01T16:45:51.560Z,98577.72
2023-05-01T16:48:25.533Z,98583.44
2023-05-01T16:50:52.855Z,98586.50
2023-05-01T16:53:21.472Z,98595.09
2023-05-01T16:55:49.512Z,98601.53
2023-05-01T16:58:16.708Z,98602.28
2023-05-01T17:00:43.994Z,98603.50
2023-05-01T17:03:11.559Z,98613.28
2023-05-01T17:05:39.280Z,98606.03
2023-05-01T17:08:06.955Z,98607.03
2023-05-01T17:10:34.694Z,98608.00
2023-05-01T17:13:02.106Z,98600.53
2023-05-01T17:15:29.332Z,98604.31
2023-05-01T17:17:57.032Z,98611.94
2023-05-01T17:20:24.287Z,98618.66
2023-05-01T17:22:51.755Z,98618.88
2023-05-01T17:25:19.646Z,98606.31
2023-05-01T17:27:47.007Z,98597.81
2023-05-01T17:30:14.683Z,98605.84
2023-05-01T17:32:43.137Z,98587.56
2023-05-01T17:35:11.278Z,98588.72
2023-05-01T17:37:39.972Z,98584.94
2023-05-01T17:40:11.198Z,98578.34
2023-05-01T17:42:38.411Z,98576.06
2023-05-01T17:45:07.614Z,98584.75
2023-05-01T17:47:42.858Z,98584.69
2023-05-01T17:50:15.638Z,98588.63
2023-05-01T17:52:45.859Z,98599.00
2023-05-01T17:55:17.104Z,98602.44
2023-05-01T17:57:46.970Z,98607.53
2023-05-01T18:00:16.188Z,98619.66
2023-05-01T18:02:44.880Z,98620.28
2023-05-01T18:05:13.181Z,98620.94
2023-05-01T18:07:41.192Z,98617.84
2023-05-01T18:10:09.852Z,98621.22
2023-05-01T18:12:37.185Z,98623.59
2023-05-01T18:15:04.867Z,98630.66
2023-05-01T18:17:32.064Z,98641.22
2023-05-01T18:20:00.558Z,98636.63
2023-05-01T18:22:28.799Z,98628.66
2023-05-01T18:24:56.377Z,98636.44
2023-05-01T18:27:23.465Z,98646.34
2023-05-01T18:29:53.424Z,98645.59
2023-05-01T18:32:20.615Z,98654.13
2023-05-01T18:34:51.211Z,98664.84
2023-05-01T18:37:18.893Z,98664.16
2023-05-01T18:39:46.872Z,98667.88
2023-05-01T18:42:14.007Z,98673.41
2023-05-01T18:44:41.458Z,98671.78
2023-05-01T18:47:08.729Z,98668.97
2023-05-01T18:49:36.196Z,98677.34
2023-05-01T18:52:03.636Z,98674.41
2023-05-01T18:54:31.375Z,98671.69
2023-05-01T18:56:59.728Z,98668.41
2023-05-01T18:59:30.794Z,98682.84
2023-05-01T19:02:03.987Z,98679.03
2023-05-01T19:04:49.437Z,98678.28
2023-05-01T19:07:23.035Z,98681.44
2023-05-01T19:09:56.217Z,98686.44
2023-05-01T19:12:23.588Z,98683.41
2023-05-01T19:14:50.916Z,98688.38
2023-05-01T19:17:19.122Z,98690.22
2023-05-01T19:19:46.387Z,98688.53
2023-05-01T19:22:13.631Z,98692.41
2023-05-01T19:24:40.838Z,98705.69
2023-05-01T19:27:11.673Z,98698.28
2023-05-01T19:29:39.895Z,98700.75
2023-05-01T19:32:07.919Z,98703.19
2023-05-01T19:34:35.716Z,98708.44
2023-05-01T19:37:03.763Z,98709.41
2023-05-01T19:39:30.915Z,98714.44
2023-05-01T19:41:59.005Z,98708.75
2023-05-01T19:44:26.323Z,98712.75
2023-05-01T19:46:53.436Z,98719.34
2023-05-01T19:49:20.764Z,98727.31
2023-05-01T19:51:48.941Z,98725.03
2023-05-01T19:54:17.409Z,98726.03
2023-05-01T19:56:46.517Z,98725.16
2023-05-01T19:59:13.614Z,98732.81
2023-05-01T20:01:41.318Z,98737.25
2023-05-01T20:04:08.753Z,98742.19
2023-05-01T20:06:36.097Z,98740.91
2023-05-01T20:09:03.940Z,98740.50
2023-05-01T20:11:31.077Z,98744.75
2023-05-01T20:13:58.223Z,98739.41
2023-05-01T20:16:27.644Z,98745.72
2023-05-01T20:18:55.331Z,98756.47
2023-05-01T20:21:22.878Z,98765.78
2023-05-01T20:23:51.204Z,98761.47
2023-05-01T20:26:18.957Z,98772.59
2023-05-01T20:28:48.686Z,98776.94
2023-05-01T20:31:15.899Z,98779.53
2023-05-01T20:33:43.108Z,98768.69
2023-05-01T20:36:10.308Z,98777.72
2023-05-01T20:38:45.426Z,98779.38
2023-05-01T20:41:12.697Z,98782.38
2023-05-01T20:43:39.900Z,98793.34
2023-05-01T20:46:07.432Z,98787.34
2023-05-01T20:48:34.985Z,98786.38
2023-05-01T20:51:02.412Z,98780.75
2023-05-01T20:53:29.754Z,98785.59
2023-05-01T20:55:56.877Z,98786.63
2023-05-01T20:58:24.108Z,98783.16
2023-05-01T21:00:55.872Z,98786.19
2023-05-01T21:03:23.096Z,98794.09
2023-05-01T21:05:50.338Z,98797.78
2023-05-01T21:08:17.745Z,98801.88
2023-05-01T21:10:45.058Z,98795.31
2023-05-01T21:13:12.742Z,98802.06
2023-05-01T21:15:42.767Z,98803.38
2023-05-01T21:18:14.291Z,98798.41
2023-05-01T21:20:42.539Z,98801.81
2023-05-01T21:23:15.744Z,98806.22
2023-05-01T21:25:43.978Z,98811.06
2023-05-01T21:28:15.620Z,98810.47
2023-05-01T21:30:43.253Z,98805.78
2023-05-01T21:33:17.525Z,98805.81
2023-05-01T21:35:46.760Z,98816.19
2023-05-01T21:38:13.948Z,98808.41
2023-05-01T21:40:43.351Z,98821.44
2023-05-01T21:43:10.773Z,98816.03
2023-05-01T21:45:43.992Z,98817.59
2023-05-01T21:48:15.960Z,98817.66
2023-05-01T21:50:50.124Z,98817.31
2023-05-01T21:53:17.631Z,98818.88
2023-05-01T21:55:49.033Z,98822.44
2023-05-01T21:58:16.451Z,98820.97
2023-05-01T22:00:46.002Z,98815.38
2023-05-01T22:03:18.273Z,98822.34
2023-05-01T22:05:46.181Z,98815.72
2023-05-01T22:08:13.337Z,98821.03
2023-05-01T22:10:42.835Z,98824.00
2023-05-01T22:13:11.372Z,98828.47
2023-05-01T22:15:38.464Z,98822.16
2023-05-01T22:18:05.743Z,98827.66
2023-05-01T22:20:32.943Z,98824.34
2023-05-01T22:23:00.913Z,98825.31
2023-05-01T22:25:28.816Z,98827.41
2023-05-01T22:27:55.915Z,98824.09
2023-05-01T22:30:23.107Z,98834.09
2023-05-01T22:32:50.446Z,98837.47
2023-05-01T22:35:17.691Z,98836.91
2023-05-01T22:37:44.826Z,98834.47
2023-05-01T22:40:12.216Z,98846.09
2023-05-01T22:42:39.389Z,98847.78
2023-05-01T22:45:07.206Z,98857.38
2023-05-01T22:47:34.417Z,98860.09
2023-05-01T22:50:02.405Z,98870.66
2023-05-01T22:52:30.297Z,98874.09
2023-05-01T22:54:57.582Z,98869.38
2023-05-01T22:57:24.831Z,98864.84
2023-05-01T22:59:52.161Z,98864.44
2023-05-01T23:02:19.683Z,98874.38
2023-05-01T23:04:47.180Z,98870.19
2023-05-01T23:07:14.354Z,98877.31
2023-05-01T23:09:42.382Z,98872.31
2023-05-01T23:12:22.442Z,98873.09
2023-05-01T23:14:49.776Z,98879.00
2023-05-01T23:17:17.255Z,98877.25
2023-05-01T23:19:46.090Z,98871.84
2023-05-01T23:22:13.865Z,98876.00
2023-05-01T23:24:49.372Z,98875.03
2023-05-01T23:27:19.417Z,98876.03
2023-05-01T23:29:56.482Z,98875.03
2023-05-01T23:32:28.195Z,98873.28
2023-05-01T23:35:05.410Z,98871.84
2023-05-01T23:37:33.113Z,98872.19
2023-05-01T23:40:08.459Z,98883.88
2023-05-01T23:42:38.187Z,98871.25
2023-05-01T23:45:08.255Z,98877.97
2023-05-01T23:47:37.340Z,98880.75
2023-05-01T23:50:06.292Z,98880.91
2023-05-01T23:52:33.981Z,98882.97
2023-05-01T23:55:01.653Z,98882.31
2023-05-01T23:57:28.796Z,98890.84
2023-05-01T23:59:55.960Z,98883.41
